Time;durP1;ratioP1;P1;durP2;ratioP2;P2;SDS_P1;SDS_P2;PMS_P1;PMS_P2;Temp;Humidity;BMP_temperature;BMP_pressure;BME280_temperature;BME280_humidity;BME280_pressure;Samples;Min_cycle;Max_cycle;Signal;HPM_P1;HPM_P2
2021/06/04 00:03:28;;;;;;;5.10;4.73;;;;;;;;;;5071308;28;20762;-67
2021/06/04 00:05:55;;;;;;;4.47;4.17;;;;;;;;;;5071184;28;20437;-67
2021/06/04 00:08:22;;;;;;;4.10;3.80;;;;;;;;;;5070966;28;20473;-67
2021/06/04 00:10:51;;;;;;;5.67;4.20;;;;;;;;;;5071124;28;20590;-66
2021/06/04 00:13:26;;;;;;;4.17;3.77;;;;;;;;;;5071111;28;20406;-67
2021/06/04 00:15:53;;;;;;;4.93;4.33;;;;;;;;;;5071597;28;20462;-67
2021/06/04 00:18:19;;;;;;;5.07;4.63;;;;;;;;;;5071102;28;20489;-66
2021/06/04 00:20:45;;;;;;;8.73;4.23;;;;;;;;;;5071133;28;20441;-67
2021/06/04 00:23:12;;;;;;;3.87;3.57;;;;;;;;;;5071384;28;20414;-69
2021/06/04 00:25:38;;;;;;;4.47;4.17;;;;;;;;;;5069776;28;20424;-68
2021/06/04 00:28:04;;;;;;;4.47;3.93;;;;;;;;;;5070964;28;20446;-70
2021/06/04 00:33:34;;;;;;;4.23;3.87;;;;;;;;;;5070706;28;20409;-67
2021/06/04 00:36:01;;;;;;;4.30;3.90;;;;;;;;;;5070681;28;20480;-66
2021/06/04 00:38:27;;;;;;;4.83;4.50;;;;;;;;;;5069586;28;20434;-67
2021/06/04 00:40:55;;;;;;;4.63;4.23;;;;;;;;;;5070965;28;20593;-67
2021/06/04 00:49:11;;;;;;;4.97;4.20;;;;;;;;;;5070907;28;20429;-67
2021/06/04 00:51:39;;;;;;;5.00;4.47;;;;;;;;;;5070950;28;20514;-68
2021/06/04 00:54:08;;;;;;;5.27;4.50;;;;;;;;;;5069574;28;20418;-67
2021/06/04 00:56:37;;;;;;;4.20;3.90;;;;;;;;;;5070761;28;20480;-67
2021/06/04 00:59:03;;;;;;;5.10;4.60;;;;;;;;;;5071222;28;20555;-66
2021/06/04 01:01:31;;;;;;;4.87;4.47;;;;;;;;;;5071040;28;20398;-66
2021/06/04 01:03:59;;;;;;;5.90;4.93;;;;;;;;;;5071134;28;20418;-67
2021/06/04 01:06:43;;;;;;;5.00;4.60;;;;;;;;;;5071065;28;20450;-67
2021/06/04 01:09:12;;;;;;;5.90;4.70;;;;;;;;;;5071097;28;20928;-67
2021/06/04 01:11:57;;;;;;;5.63;4.30;;;;;;;;;;5071065;28;20406;-67
2021/06/04 01:14:39;;;;;;;5.10;4.63;;;;;;;;;;5075448;28;20414;-68
2021/06/04 01:17:25;;;;;;;4.63;4.13;;;;;;;;;;5075144;28;20469;-66
2021/06/04 01:19:56;;;;;;;5.07;4.67;;;;;;;;;;5075164;28;20467;-67
2021/06/04 01:22:37;;;;;;;4.13;3.73;;;;;;;;;;5075132;28;20409;-68
2021/06/04 01:25:12;;;;;;;4.60;4.20;;;;;;;;;;5074916;28;20425;-67
2021/06/04 01:27:41;;;;;;;4.37;3.97;;;;;;;;;;5074995;28;20420;-67
2021/06/04 01:30:22;;;;;;;4.30;4.00;;;;;;;;;;5074835;28;20410;-68
2021/06/04 01:32:50;;;;;;;4.70;3.93;;;;;;;;;;5073625;28;20421;-67
2021/06/04 01:35:19;;;;;;;4.70;3.67;;;;;;;;;;5074340;28;20477;-66
2021/06/04 01:37:46;;;;;;;3.97;3.67;;;;;;;;;;5074446;28;20920;-67
2021/06/04 01:40:18;;;;;;;4.63;4.23;;;;;;;;;;5074667;28;20430;-67
2021/06/04 01:42:47;;;;;;;4.30;3.90;;;;;;;;;;5074428;28;20426;-65
2021/06/04 01:45:13;;;;;;;4.10;3.80;;;;;;;;;;5074485;28;20414;-66
2021/06/04 01:47:40;;;;;;;5.30;4.80;;;;;;;;;;5074607;28;20505;-67
2021/06/04 01:50:12;;;;;;;5.63;4.30;;;;;;;;;;5074511;28;20413;-67
2021/06/04 01:52:40;;;;;;;6.80;4.93;;;;;;;;;;5074529;28;20441;-67
2021/06/04 01:55:09;;;;;;;5.27;4.77;;;;;;;;;;5074090;28;20436;-66
2021/06/04 01:57:37;;;;;;;4.90;4.50;;;;;;;;;;5074598;28;20442;-68
2021/06/04 02:00:07;;;;;;;5.57;5.07;;;;;;;;;;5074293;28;20436;-66
2021/06/04 02:02:35;;;;;;;6.83;4.90;;;;;;;;;;5074520;28;20406;-67
2021/06/04 02:05:01;;;;;;;6.00;4.93;;;;;;;;;;5073110;28;20441;-67
2021/06/04 02:07:29;;;;;;;5.43;4.93;;;;;;;;;;5073982;28;20432;-67
2021/06/04 02:09:56;;;;;;;7.17;4.83;;;;;;;;;;5074145;28;20403;-66
2021/06/04 02:12:22;;;;;;;5.50;5.00;;;;;;;;;;5074279;28;20496;-66
2021/06/04 02:14:50;;;;;;;6.00;5.50;;;;;;;;;;5074249;28;20418;-67
2021/06/04 02:17:31;;;;;;;6.40;5.40;;;;;;;;;;5073733;28;20454;-67
2021/06/04 02:20:02;;;;;;;6.37;5.77;;;;;;;;;;5074377;28;20519;-67
2021/06/04 02:22:34;;;;;;;6.50;5.23;;;;;;;;;;5074058;28;20402;-65
2021/06/04 02:25:06;;;;;;;4.67;4.27;;;;;;;;;;5073195;28;20418;-66
2021/06/04 02:27:34;;;;;;;7.13;5.23;;;;;;;;;;5073802;28;20901;-67
2021/06/04 02:30:05;;;;;;;4.50;4.20;;;;;;;;;;5073571;28;20467;-66
2021/06/04 02:32:41;;;;;;;5.70;5.20;;;;;;;;;;5073634;28;20402;-67
2021/06/04 02:35:36;;;;;;;6.13;5.53;;;;;;;;;;5073507;28;20460;-66
2021/06/04 02:38:11;;;;;;;7.00;5.30;;;;;;;;;;5076483;28;20453;-66
2021/06/04 02:40:39;;;;;;;5.70;5.30;;;;;;;;;;5073740;28;20420;-66
2021/06/04 02:43:18;;;;;;;5.80;5.10;;;;;;;;;;5073721;28;20509;-66
2021/06/04 02:45:47;;;;;;;5.53;5.03;;;;;;;;;;5073126;28;20922;-66
2021/06/04 02:48:15;;;;;;;6.10;5.50;;;;;;;;;;5073529;28;20505;-67
2021/06/04 02:50:44;;;;;;;7.00;6.40;;;;;;;;;;5073610;28;20426;-66
2021/06/04 02:53:19;;;;;;;6.10;5.50;;;;;;;;;;5073252;28;20521;-66
2021/06/04 02:56:04;;;;;;;6.37;5.80;;;;;;;;;;5073128;28;20460;-66
2021/06/04 02:58:30;;;;;;;5.53;5.03;;;;;;;;;;5073314;28;20497;-67
2021/06/04 03:00:56;;;;;;;7.87;5.70;;;;;;;;;;5073193;28;20445;-67
2021/06/04 03:03:22;;;;;;;6.80;5.53;;;;;;;;;;5072970;28;20446;-66
2021/06/04 03:05:48;;;;;;;6.93;6.17;;;;;;;;;;5073134;28;20414;-66
2021/06/04 03:08:15;;;;;;;7.57;5.50;;;;;;;;;;5072611;28;20420;-66
2021/06/04 03:10:45;;;;;;;6.30;5.67;;;;;;;;;;5073250;28;20901;-67
2021/06/04 03:13:13;;;;;;;6.40;5.73;;;;;;;;;;5072622;28;20508;-68
2021/06/04 03:15:41;;;;;;;5.90;5.40;;;;;;;;;;5071985;28;20469;-69
2021/06/04 03:18:08;;;;;;;8.17;5.87;;;;;;;;;;5072494;28;20437;-68
2021/06/04 03:20:36;;;;;;;5.80;5.20;;;;;;;;;;5072031;28;20926;-67
2021/06/04 03:23:02;;;;;;;5.70;5.30;;;;;;;;;;5071998;28;20904;-66
2021/06/04 03:25:33;;;;;;;5.37;4.87;;;;;;;;;;5072007;28;20526;-66
2021/06/04 03:27:59;;;;;;;5.50;5.00;;;;;;;;;;5071725;28;20422;-68
2021/06/04 03:30:26;;;;;;;7.73;5.13;;;;;;;;;;5071808;28;20491;-68
2021/06/04 03:32:52;;;;;;;8.40;6.00;;;;;;;;;;5071908;28;20751;-67
2021/06/04 03:35:19;;;;;;;6.80;5.87;;;;;;;;;;5071168;28;20561;-67
2021/06/04 03:37:45;;;;;;;6.60;6.00;;;;;;;;;;5071253;28;20418;-66
2021/06/04 03:40:13;;;;;;;6.53;5.13;;;;;;;;;;5070302;28;20816;-66
2021/06/04 03:42:40;;;;;;;6.03;5.43;;;;;;;;;;5071607;28;20414;-67
2021/06/04 03:45:08;;;;;;;6.87;6.27;;;;;;;;;;5071573;28;20931;-68
2021/06/04 03:47:34;;;;;;;8.57;6.60;;;;;;;;;;5071607;28;20410;-67
2021/06/04 03:50:00;;;;;;;9.30;7.57;;;;;;;;;;5071549;28;20953;-67
2021/06/04 03:52:26;;;;;;;6.57;6.07;;;;;;;;;;5071582;28;20433;-69
2021/06/04 03:54:55;;;;;;;6.97;6.27;;;;;;;;;;5071407;28;20511;-66
2021/06/04 03:57:24;;;;;;;7.27;6.57;;;;;;;;;;5071397;28;20462;-68
2021/06/04 03:59:50;;;;;;;7.13;6.50;;;;;;;;;;5070156;28;20433;-67
2021/06/04 04:02:18;;;;;;;7.10;6.40;;;;;;;;;;5071253;28;20470;-69
2021/06/04 04:04:44;;;;;;;7.60;6.20;;;;;;;;;;5070998;28;20412;-66
2021/06/04 04:07:11;;;;;;;6.67;6.10;;;;;;;;;;5070880;28;20932;-68
2021/06/04 04:09:37;;;;;;;8.10;6.30;;;;;;;;;;5071364;28;20448;-67
2021/06/04 04:12:03;;;;;;;7.57;6.77;;;;;;;;;;5070996;28;20936;-68
2021/06/04 04:14:29;;;;;;;7.40;5.53;;;;;;;;;;5071459;28;20422;-67
2021/06/04 04:19:59;;;;;;;6.20;5.80;;;;;;;;;;5071037;28;20416;-66
2021/06/04 04:22:25;;;;;;;6.37;5.87;;;;;;;;;;5070966;28;20409;-65
2021/06/04 04:24:51;;;;;;;7.37;6.67;;;;;;;;;;5070931;28;20754;-66
2021/06/04 04:27:17;;;;;;;9.27;8.53;;;;;;;;;;5070989;28;20409;-69
2021/06/04 04:29:43;;;;;;;8.53;7.77;;;;;;;;;;5071240;28;20441;-66
2021/06/04 04:35:16;;;;;;;7.83;7.23;;;;;;;;;;5070836;28;20952;-68
2021/06/04 04:37:42;;;;;;;7.87;7.17;;;;;;;;;;5070807;28;20513;-66
2021/06/04 04:40:09;;;;;;;7.70;7.10;;;;;;;;;;5071085;28;20791;-67
2021/06/04 04:42:35;;;;;;;8.27;7.50;;;;;;;;;;5070931;28;20421;-66
2021/06/04 04:45:01;;;;;;;7.20;6.60;;;;;;;;;;5071290;28;20410;-67
2021/06/04 04:47:27;;;;;;;7.20;6.60;;;;;;;;;;5069293;28;20441;-66
2021/06/04 04:49:53;;;;;;;7.00;6.40;;;;;;;;;;5070804;28;20904;-68
2021/06/04 04:52:19;;;;;;;7.80;7.17;;;;;;;;;;5071203;28;20763;-67
2021/06/04 04:54:47;;;;;;;9.13;7.40;;;;;;;;;;5071086;28;20427;-67
2021/06/04 04:57:14;;;;;;;11.60;8.50;;;;;;;;;;5070734;28;20927;-68
2021/06/04 04:59:40;;;;;;;7.97;7.33;;;;;;;;;;5070968;28;20465;-68
2021/06/04 05:05:09;;;;;;;9.90;7.90;;;;;;;;;;5070439;28;20421;-67
2021/06/04 05:07:35;;;;;;;7.47;6.80;;;;;;;;;;5070137;28;20414;-68
2021/06/04 05:10:02;;;;;;;7.83;7.23;;;;;;;;;;5070480;28;20402;-68
2021/06/04 05:12:28;;;;;;;6.80;6.30;;;;;;;;;;5070256;28;20441;-69
2021/06/04 05:14:55;;;;;;;7.60;6.93;;;;;;;;;;5070423;28;20403;-66
2021/06/04 05:20:25;;;;;;;8.20;6.37;;;;;;;;;;5070170;28;20512;-67
2021/06/04 05:22:51;;;;;;;7.13;6.57;;;;;;;;;;5070216;28;20410;-66
2021/06/04 05:25:19;;;;;;;6.70;6.10;;;;;;;;;;5070541;28;20421;-66
2021/06/04 05:27:45;;;;;;;7.90;6.43;;;;;;;;;;5069075;28;20518;-66
2021/06/04 05:36:14;;;;;;;6.40;5.90;;;;;;;;;;5069891;28;20507;-67
2021/06/04 05:38:40;;;;;;;6.63;6.03;;;;;;;;;;5068650;28;20434;-67
2021/06/04 05:41:06;;;;;;;5.80;5.30;;;;;;;;;;5068605;28;20555;-66
2021/06/04 05:43:34;;;;;;;5.90;5.40;;;;;;;;;;5070215;28;20753;-66
2021/06/04 05:46:01;;;;;;;5.60;5.10;;;;;;;;;;5069995;28;20453;-68
2021/06/04 05:48:27;;;;;;;4.90;4.50;;;;;;;;;;5070078;28;20422;-67
2021/06/04 05:50:56;;;;;;;5.07;4.67;;;;;;;;;;5069782;28;20911;-67
2021/06/04 05:53:24;;;;;;;4.40;4.00;;;;;;;;;;5069914;28;20877;-67
2021/06/04 05:55:50;;;;;;;5.33;4.93;;;;;;;;;;5069888;28;20580;-67
2021/06/04 05:58:18;;;;;;;5.40;4.23;;;;;;;;;;5069430;28;20436;-67
2021/06/04 06:00:45;;;;;;;4.37;4.07;;;;;;;;;;5070388;28;20864;-69
2021/06/04 06:03:16;;;;;;;3.87;3.57;;;;;;;;;;5070810;28;20800;-66
2021/06/04 06:05:42;;;;;;;3.77;3.50;;;;;;;;;;5071751;28;20503;-67
2021/06/04 06:08:08;;;;;;;4.57;4.17;;;;;;;;;;5071823;28;20422;-67
2021/06/04 06:10:34;;;;;;;4.03;3.70;;;;;;;;;;5071714;28;20414;-67
2021/06/04 06:13:00;;;;;;;3.93;3.63;;;;;;;;;;5071693;28;20411;-71
2021/06/04 06:15:26;;;;;;;3.67;3.37;;;;;;;;;;5072098;28;20483;-67
2021/06/04 06:20:56;;;;;;;3.40;3.10;;;;;;;;;;5072154;28;20502;-68
2021/06/04 06:23:25;;;;;;;3.83;3.43;;;;;;;;;;5072283;28;20967;-69
2021/06/04 06:25:55;;;;;;;3.17;2.97;;;;;;;;;;5072234;28;20892;-70
2021/06/04 06:28:22;;;;;;;4.83;3.33;;;;;;;;;;5072932;28;20904;-66
2021/06/04 06:30:48;;;;;;;3.57;3.27;;;;;;;;;;5071939;28;20962;-67
2021/06/04 06:33:14;;;;;;;3.33;3.13;;;;;;;;;;5073349;28;20406;-67
2021/06/04 06:35:51;;;;;;;5.77;3.67;;;;;;;;;;5072983;28;20841;-67
2021/06/04 06:38:17;;;;;;;4.87;3.00;;;;;;;;;;5073634;28;20834;-67
2021/06/04 06:40:44;;;;;;;3.60;2.80;;;;;;;;;;5072899;28;20413;-65
2021/06/04 06:43:10;;;;;;;3.20;2.47;;;;;;;;;;5072734;28;20406;-67
2021/06/04 06:45:37;;;;;;;2.50;2.40;;;;;;;;;;5072815;28;20402;-67
2021/06/04 06:51:09;;;;;;;3.70;3.40;;;;;;;;;;5072666;28;20417;-66
2021/06/04 06:53:35;;;;;;;3.03;2.77;;;;;;;;;;5072762;28;20406;-67
2021/06/04 06:56:01;;;;;;;2.70;2.50;;;;;;;;;;5073121;28;20523;-67
2021/06/04 06:58:27;;;;;;;3.40;2.30;;;;;;;;;;5072805;28;20410;-66
2021/06/04 07:00:55;;;;;;;4.30;3.00;;;;;;;;;;5072943;28;20390;-66
2021/06/04 07:06:26;;;;;;;2.60;2.17;;;;;;;;;;5072860;28;20464;-67
2021/06/04 07:08:52;;;;;;;4.10;2.53;;;;;;;;;;5072228;28;20429;-69
2021/06/04 07:11:19;;;;;;;3.40;3.10;;;;;;;;;;5072655;28;20437;-67
2021/06/04 07:13:46;;;;;;;4.17;3.63;;;;;;;;;;5072866;28;20470;-69
2021/06/04 07:16:13;;;;;;;7.20;3.80;;;;;;;;;;5071768;28;20466;-69
2021/06/04 07:18:39;;;;;;;4.70;3.50;;;;;;;;;;5072418;28;20445;-70
2021/06/04 07:21:07;;;;;;;6.23;3.17;;;;;;;;;;5072616;28;20402;-67
2021/06/04 07:23:33;;;;;;;9.10;4.00;;;;;;;;;;5070858;28;20420;-67
2021/06/04 07:25:59;;;;;;;5.70;4.30;;;;;;;;;;5071024;28;20940;-70
2021/06/04 07:28:27;;;;;;;7.37;3.90;;;;;;;;;;5071254;28;20493;-70
2021/06/04 07:30:55;;;;;;;3.50;3.00;;;;;;;;;;5070577;28;20988;-67
2021/06/04 07:36:28;;;;;;;2.10;1.90;;;;;;;;;;5070918;28;21041;-68
2021/06/04 07:38:54;;;;;;;5.40;2.37;;;;;;;;;;5072122;28;20467;-69
2021/06/04 07:41:20;;;;;;;2.30;1.80;;;;;;;;;;5071393;28;20955;-66
2021/06/04 07:43:47;;;;;;;2.37;2.00;;;;;;;;;;5072196;28;20476;-66
2021/06/04 07:46:14;;;;;;;2.47;2.07;;;;;;;;;;5072357;28;20530;-67
2021/06/04 07:51:45;;;;;;;2.20;2.10;;;;;;;;;;5072442;28;20433;-67
2021/06/04 07:54:12;;;;;;;2.50;2.30;;;;;;;;;;5072245;28;20410;-68
2021/06/04 07:56:38;;;;;;;5.00;2.13;;;;;;;;;;5072189;28;20465;-67
2021/06/04 07:59:04;;;;;;;1.70;1.60;;;;;;;;;;5072366;28;20461;-67
2021/06/04 08:01:31;;;;;;;1.83;1.20;;;;;;;;;;5071898;28;20427;-69
2021/06/04 08:03:58;;;;;;;3.00;1.60;;;;;;;;;;5071915;28;20398;-67
2021/06/04 08:06:24;;;;;;;4.50;1.70;;;;;;;;;;5072099;28;20413;-67
2021/06/04 08:08:53;;;;;;;1.83;1.73;;;;;;;;;;5072177;28;20919;-69
2021/06/04 08:11:38;;;;;;;2.03;1.50;;;;;;;;;;5071765;28;20411;-68
2021/06/04 08:14:07;;;;;;;2.83;1.80;;;;;;;;;;5071746;28;20748;-67
2021/06/04 08:22:23;;;;;;;3.33;1.40;;;;;;;;;;5071219;28;20499;-70
2021/06/04 08:24:49;;;;;;;2.70;1.80;;;;;;;;;;5070177;28;20916;-68
2021/06/04 08:27:17;;;;;;;8.17;2.57;;;;;;;;;;5071574;28;20503;-69
2021/06/04 08:29:47;;;;;;;2.13;1.73;;;;;;;;;;5071722;28;20398;-67
2021/06/04 08:32:13;;;;;;;2.23;2.03;;;;;;;;;;5071448;28;20461;-68
2021/06/04 08:34:39;;;;;;;3.60;1.90;;;;;;;;;;5071207;28;20458;-68
2021/06/04 08:37:05;;;;;;;5.27;2.33;;;;;;;;;;5071322;28;20473;-68
2021/06/04 08:39:33;;;;;;;2.67;2.47;;;;;;;;;;5071458;28;20410;-66
2021/06/04 08:42:05;;;;;;;2.50;2.30;;;;;;;;;;5071540;28;20418;-67
2021/06/04 08:44:42;;;;;;;2.77;2.10;;;;;;;;;;5071667;28;20402;-68
2021/06/04 08:47:16;;;;;;;2.80;2.20;;;;;;;;;;5071527;28;20393;-68
2021/06/04 08:50:01;;;;;;;3.53;2.40;;;;;;;;;;5070150;28;20429;-68
2021/06/04 08:52:46;;;;;;;3.73;2.70;;;;;;;;;;5070781;28;20425;-67
2021/06/04 08:55:25;;;;;;;2.20;1.87;;;;;;;;;;5069697;28;20454;-70
2021/06/04 08:57:52;;;;;;;2.60;2.40;;;;;;;;;;5071513;28;20442;-68
2021/06/04 09:00:27;;;;;;;3.07;2.53;;;;;;;;;;5071384;28;20506;-71
2021/06/04 09:03:05;;;;;;;2.83;2.17;;;;;;;;;;5071332;28;20461;-68
2021/06/04 09:05:35;;;;;;;3.50;2.30;;;;;;;;;;5070841;28;20797;-66
2021/06/04 09:08:01;;;;;;;3.50;2.27;;;;;;;;;;5070848;28;20410;-68
2021/06/04 09:10:56;;;;;;;2.93;2.60;;;;;;;;;;5070700;28;20420;-67
2021/06/04 09:13:24;;;;;;;3.67;2.63;;;;;;;;;;5074836;28;20540;-68
2021/06/04 09:15:53;;;;;;;6.07;2.30;;;;;;;;;;5070623;28;20461;-67
2021/06/04 09:18:22;;;;;;;2.77;2.50;;;;;;;;;;5070830;28;20422;-68
2021/06/04 09:20:48;;;;;;;3.83;2.50;;;;;;;;;;5070417;28;20440;-68
2021/06/04 09:23:15;;;;;;;5.73;2.40;;;;;;;;;;5070623;28;20430;-68
2021/06/04 09:25:42;;;;;;;2.60;2.40;;;;;;;;;;5070514;28;20819;-68
2021/06/04 09:28:12;;;;;;;3.23;2.53;;;;;;;;;;5069666;28;20421;-74
2021/06/04 09:30:45;;;;;;;4.03;2.77;;;;;;;;;;5069930;28;20417;-72
2021/06/04 09:33:13;;;;;;;2.87;2.30;;;;;;;;;;5070096;28;20491;-71
2021/06/04 09:35:57;;;;;;;2.90;2.43;;;;;;;;;;5071442;28;20473;-73
2021/06/04 09:38:29;;;;;;;2.60;2.40;;;;;;;;;;5073845;28;20414;-72
2021/06/04 09:40:55;;;;;;;2.97;2.77;;;;;;;;;;5073681;28;20769;-67
2021/06/04 09:43:33;;;;;;;2.70;2.33;;;;;;;;;;5073741;28;20414;-67
2021/06/04 09:46:00;;;;;;;6.60;3.10;;;;;;;;;;5073566;28;21002;-67
2021/06/04 09:48:55;;;;;;;2.67;2.17;;;;;;;;;;5073829;28;20516;-68
2021/06/04 09:51:27;;;;;;;2.87;2.67;;;;;;;;;;5076330;28;20434;-68
2021/06/04 09:53:54;;;;;;;5.83;2.60;;;;;;;;;;5073319;28;20414;-66
2021/06/04 09:56:31;;;;;;;6.43;3.20;;;;;;;;;;5073660;28;21104;-68
2021/06/04 09:59:11;;;;;;;2.77;2.57;;;;;;;;;;5073113;28;20659;-68
2021/06/04 10:01:48;;;;;;;5.40;2.60;;;;;;;;;;5073620;28;20402;-69
2021/06/04 10:04:16;;;;;;;2.93;2.63;;;;;;;;;;5073055;28;20493;-72
2021/06/04 10:06:46;;;;;;;2.80;2.60;;;;;;;;;;5073667;28;20828;-69
2021/06/04 10:09:39;;;;;;;4.73;2.60;;;;;;;;;;5073650;28;20441;-71
2021/06/04 10:12:07;;;;;;;7.00;2.80;;;;;;;;;;5074251;28;20462;-68
2021/06/04 10:14:58;;;;;;;3.30;2.40;;;;;;;;;;5073651;28;20433;-68
2021/06/04 10:20:26;;;;;;;3.53;2.73;;;;;;;;;;5072968;28;20491;-69
2021/06/04 10:23:00;;;;;;;4.53;3.17;;;;;;;;;;5073286;28;20432;-72
2021/06/04 10:25:28;;;;;;;3.30;2.97;;;;;;;;;;5073457;28;20402;-73
2021/06/04 10:27:55;;;;;;;3.57;2.83;;;;;;;;;;5073348;28;20789;-74
2021/06/04 10:30:21;;;;;;;7.60;3.47;;;;;;;;;;5073560;28;20896;-68
2021/06/04 10:32:53;;;;;;;6.13;2.53;;;;;;;;;;5072361;28;20414;-69
2021/06/04 10:35:22;;;;;;;3.83;3.23;;;;;;;;;;5074511;28;20548;-71
2021/06/04 10:37:55;;;;;;;3.20;2.60;;;;;;;;;;5073234;28;20477;-68
2021/06/04 10:40:49;;;;;;;3.90;3.30;;;;;;;;;;5075055;28;20480;-70
2021/06/04 10:43:18;;;;;;;3.70;3.30;;;;;;;;;;5075830;28;20434;-68
2021/06/04 10:45:51;;;;;;;6.20;3.37;;;;;;;;;;5073990;28;20509;-67
2021/06/04 10:51:24;;;;;;;6.77;3.37;;;;;;;;;;5074357;28;20813;-72
2021/06/04 10:54:08;;;;;;;3.37;3.07;;;;;;;;;;5074319;28;20421;-69
2021/06/04 10:56:37;;;;;;;5.03;2.67;;;;;;;;;;5074465;28;20492;-67
2021/06/04 10:59:19;;;;;;;6.10;3.43;;;;;;;;;;5074219;28;20460;-66
2021/06/04 11:01:48;;;;;;;5.30;3.67;;;;;;;;;;5074320;28;20422;-67
2021/06/04 11:07:36;;;;;;;7.20;3.03;;;;;;;;;;5072785;28;20474;-68
2021/06/04 11:10:08;;;;;;;3.47;3.13;;;;;;;;;;5072826;28;20942;-71
2021/06/04 11:12:48;;;;;;;5.57;3.10;;;;;;;;;;5072828;28;20446;-68
2021/06/04 11:15:17;;;;;;;3.70;2.57;;;;;;;;;;5072733;28;20395;-68
2021/06/04 11:17:43;;;;;;;2.80;2.50;;;;;;;;;;5072543;28;20470;-67
2021/06/04 11:23:18;;;;;;;3.73;2.50;;;;;;;;;;5072448;28;20491;-68
2021/06/04 11:25:50;;;;;;;2.97;2.30;;;;;;;;;;5072802;28;20417;-71
2021/06/04 11:28:26;;;;;;;2.90;2.30;;;;;;;;;;5072796;28;20410;-68
2021/06/04 11:30:54;;;;;;;4.00;2.27;;;;;;;;;;5073022;28;20487;-68
2021/06/04 11:39:33;;;;;;;3.33;2.00;;;;;;;;;;5071885;28;20436;-67
2021/06/04 11:42:01;;;;;;;2.97;2.43;;;;;;;;;;5072591;28;20405;-69
2021/06/04 11:44:43;;;;;;;10.57;3.07;;;;;;;;;;5072561;28;20411;-72
2021/06/04 11:47:12;;;;;;;4.60;2.50;;;;;;;;;;5072252;28;20422;-73
2021/06/04 11:50:09;;;;;;;4.57;2.90;;;;;;;;;;5072244;28;20414;-67
2021/06/04 11:52:41;;;;;;;4.33;2.80;;;;;;;;;;5075469;28;20453;-72
2021/06/04 11:55:10;;;;;;;3.70;2.60;;;;;;;;;;5072048;28;20418;-67
2021/06/04 11:57:45;;;;;;;3.10;2.80;;;;;;;;;;5071720;28;20480;-71
2021/06/04 12:00:27;;;;;;;4.37;2.60;;;;;;;;;;5071894;28;20410;-72
2021/06/04 12:03:09;;;;;;;4.87;3.50;;;;;;;;;;5072045;28;20453;-68
2021/06/04 12:05:39;;;;;;;5.70;2.77;;;;;;;;;;5071987;28;20504;-67
2021/06/04 12:08:24;;;;;;;4.33;3.03;;;;;;;;;;5071821;28;20409;-68
2021/06/04 12:10:50;;;;;;;4.60;2.67;;;;;;;;;;5071858;28;20418;-69
2021/06/04 12:13:31;;;;;;;3.43;2.33;;;;;;;;;;5071823;28;20935;-72
2021/06/04 12:16:17;;;;;;;3.00;2.80;;;;;;;;;;5071568;28;20464;-68
2021/06/04 12:18:49;;;;;;;4.17;2.70;;;;;;;;;;5071512;28;20508;-67
2021/06/04 12:21:34;;;;;;;4.10;2.93;;;;;;;;;;5071505;28;20492;-66
2021/06/04 12:24:00;;;;;;;10.33;2.90;;;;;;;;;;5071654;28;20418;-67
2021/06/04 12:26:39;;;;;;;4.20;2.97;;;;;;;;;;5071535;28;20919;-67
2021/06/04 12:29:24;;;;;;;3.90;2.70;;;;;;;;;;5071619;28;20521;-73
2021/06/04 12:31:54;;;;;;;5.20;2.83;;;;;;;;;;5071390;28;20916;-67
2021/06/04 12:37:30;;;;;;;5.90;3.10;;;;;;;;;;5071541;28;20894;-67
2021/06/04 12:39:58;;;;;;;4.10;3.63;;;;;;;;;;5069861;28;20430;-67
2021/06/04 12:42:24;;;;;;;5.80;3.77;;;;;;;;;;5071536;28;20426;-67
2021/06/04 12:44:52;;;;;;;6.70;3.40;;;;;;;;;;5070402;28;20418;-67
2021/06/04 12:47:22;;;;;;;5.03;2.90;;;;;;;;;;5070914;28;20956;-67
2021/06/04 12:52:53;;;;;;;4.50;2.77;;;;;;;;;;5070662;28;20818;-68
2021/06/04 12:55:19;;;;;;;3.30;3.10;;;;;;;;;;5070912;28;20904;-67
2021/06/04 12:57:46;;;;;;;4.00;3.00;;;;;;;;;;5071049;28;20472;-67
2021/06/04 13:00:16;;;;;;;5.20;2.90;;;;;;;;;;5071226;28;20509;-68
2021/06/04 13:02:43;;;;;;;3.33;3.03;;;;;;;;;;5070903;28;20422;-67
2021/06/04 13:08:15;;;;;;;3.87;3.50;;;;;;;;;;5071460;28;20437;-69
2021/06/04 13:10:53;;;;;;;3.00;2.70;;;;;;;;;;5075990;28;20808;-71
2021/06/04 13:13:23;;;;;;;3.07;2.77;;;;;;;;;;5075783;28;20475;-68
2021/06/04 13:15:49;;;;;;;4.50;3.00;;;;;;;;;;5075705;28;20433;-69
2021/06/04 13:18:19;;;;;;;7.73;2.93;;;;;;;;;;5076101;28;20463;-68
2021/06/04 13:24:04;;;;;;;3.70;3.40;;;;;;;;;;5075695;28;20897;-69
2021/06/04 13:26:31;;;;;;;6.90;3.20;;;;;;;;;;5075911;28;20418;-68
2021/06/04 13:29:02;;;;;;;4.83;3.20;;;;;;;;;;5075705;28;20491;-70
2021/06/04 13:31:31;;;;;;;6.07;3.63;;;;;;;;;;5076139;28;20444;-68
2021/06/04 13:34:00;;;;;;;6.63;3.30;;;;;;;;;;5075855;28;20410;-68
2021/06/04 13:39:33;;;;;;;4.10;3.00;;;;;;;;;;5075490;28;20436;-69
2021/06/04 13:42:07;;;;;;;4.43;3.60;;;;;;;;;;5075097;28;20414;-69
2021/06/04 13:44:34;;;;;;;7.10;3.30;;;;;;;;;;5075668;28;20466;-70
2021/06/04 13:47:07;;;;;;;4.53;3.03;;;;;;;;;;5075247;28;20426;-68
2021/06/04 13:49:38;;;;;;;5.37;3.63;;;;;;;;;;5075344;28;20436;-68
2021/06/04 13:55:07;;;;;;;4.33;3.03;;;;;;;;;;5075560;28;20463;-68
2021/06/04 13:57:38;;;;;;;8.20;3.43;;;;;;;;;;5075412;28;20469;-67
2021/06/04 14:00:13;;;;;;;3.93;3.23;;;;;;;;;;5074035;28;20830;-67
2021/06/04 14:02:40;;;;;;;5.90;3.17;;;;;;;;;;5073981;28;20418;-69
2021/06/04 14:05:16;;;;;;;6.73;4.23;;;;;;;;;;5074147;28;20422;-66
2021/06/04 14:07:44;;;;;;;3.20;2.90;;;;;;;;;;5074290;28;20502;-67
2021/06/04 14:10:32;;;;;;;5.50;3.50;;;;;;;;;;5074221;28;20409;-67
2021/06/04 14:13:04;;;;;;;3.33;3.03;;;;;;;;;;5074416;28;20418;-67
2021/06/04 14:15:32;;;;;;;5.90;2.90;;;;;;;;;;5075344;28;20873;-66
2021/06/04 14:17:59;;;;;;;3.30;3.10;;;;;;;;;;5075407;28;20481;-66
2021/06/04 14:20:34;;;;;;;8.07;3.23;;;;;;;;;;5072910;28;20891;-66
2021/06/04 14:23:00;;;;;;;3.63;3.07;;;;;;;;;;5075061;28;20432;-67
2021/06/04 14:25:27;;;;;;;5.17;3.63;;;;;;;;;;5075313;28;20418;-66
2021/06/04 14:28:00;;;;;;;5.00;3.30;;;;;;;;;;5074626;28;20838;-68
2021/06/04 14:30:38;;;;;;;4.10;3.70;;;;;;;;;;5074828;28;20995;-67
2021/06/04 14:33:14;;;;;;;6.87;3.63;;;;;;;;;;5074785;28;20504;-67
2021/06/04 14:35:49;;;;;;;3.97;3.00;;;;;;;;;;5074520;28;20972;-66
2021/06/04 14:38:24;;;;;;;3.73;3.33;;;;;;;;;;5074828;28;20418;-67
2021/06/04 14:40:50;;;;;;;4.23;3.43;;;;;;;;;;5074806;28;20398;-67
2021/06/04 14:43:16;;;;;;;5.57;3.40;;;;;;;;;;5074453;28;20429;-66
2021/06/04 14:45:42;;;;;;;4.50;3.83;;;;;;;;;;5074560;28;20591;-67
2021/06/04 14:48:11;;;;;;;6.53;3.90;;;;;;;;;;5074763;28;20418;-67
2021/06/04 14:50:37;;;;;;;4.67;3.87;;;;;;;;;;5074555;28;20438;-67
2021/06/04 14:53:05;;;;;;;6.67;4.27;;;;;;;;;;5074669;28;20487;-67
2021/06/04 14:55:31;;;;;;;5.30;3.70;;;;;;;;;;5074452;28;20413;-67
2021/06/04 14:58:01;;;;;;;3.97;3.60;;;;;;;;;;5073638;28;20468;-67
2021/06/04 15:00:28;;;;;;;4.17;3.53;;;;;;;;;;5074239;28;20414;-66
2021/06/04 15:02:54;;;;;;;4.90;4.03;;;;;;;;;;5074368;28;20473;-67
2021/06/04 15:11:10;;;;;;;4.87;4.10;;;;;;;;;;5074208;28;20914;-67
2021/06/04 15:13:39;;;;;;;5.47;4.67;;;;;;;;;;5074421;28;20421;-67
2021/06/04 15:16:05;;;;;;;4.93;4.30;;;;;;;;;;5074175;28;20457;-65
2021/06/04 15:18:32;;;;;;;5.30;3.40;;;;;;;;;;5074082;28;20930;-67
2021/06/04 15:20:59;;;;;;;5.70;4.00;;;;;;;;;;5074117;28;20431;-67
2021/06/04 15:23:25;;;;;;;7.27;3.93;;;;;;;;;;5073324;28;20422;-68
2021/06/04 15:25:51;;;;;;;5.77;3.77;;;;;;;;;;5073909;28;20443;-68
2021/06/04 15:28:19;;;;;;;4.10;3.77;;;;;;;;;;5073965;28;20425;-67
2021/06/04 15:30:45;;;;;;;5.97;4.40;;;;;;;;;;5074127;28;20733;-67
2021/06/04 15:33:12;;;;;;;4.40;3.70;;;;;;;;;;5073934;28;20421;-67
2021/06/04 15:35:38;;;;;;;4.50;4.00;;;;;;;;;;5073603;28;20465;-66
2021/06/04 15:38:04;;;;;;;5.20;3.93;;;;;;;;;;5073791;28;20858;-67
2021/06/04 15:40:30;;;;;;;5.97;3.20;;;;;;;;;;5073604;28;20453;-66
2021/06/04 15:42:56;;;;;;;4.73;4.33;;;;;;;;;;5073498;28;20446;-67
2021/06/04 15:45:24;;;;;;;4.43;3.50;;;;;;;;;;5073606;28;20420;-67
2021/06/04 15:47:53;;;;;;;4.63;3.60;;;;;;;;;;5073667;28;20513;-69
2021/06/04 15:50:19;;;;;;;7.03;3.70;;;;;;;;;;5073703;28;20414;-67
2021/06/04 15:55:49;;;;;;;4.90;3.60;;;;;;;;;;5073162;28;20517;-66
2021/06/04 15:58:15;;;;;;;4.77;3.70;;;;;;;;;;5073520;28;20413;-66
2021/06/04 16:00:41;;;;;;;3.30;3.00;;;;;;;;;;5073259;28;20409;-67
2021/06/04 16:03:07;;;;;;;4.40;3.17;;;;;;;;;;5071600;28;20426;-67
2021/06/04 16:05:36;;;;;;;8.70;7.50;;;;;;;;;;5073118;28;20460;-67
2021/06/04 16:11:06;;;;;;;4.60;4.20;;;;;;;;;;5072903;28;20432;-66
2021/06/04 16:13:32;;;;;;;6.53;4.40;;;;;;;;;;5073071;28;20406;-67
2021/06/04 16:15:58;;;;;;;8.10;6.00;;;;;;;;;;5071591;28;20483;-67
2021/06/04 16:18:24;;;;;;;4.10;3.70;;;;;;;;;;5073075;28;20465;-67
2021/06/04 16:20:51;;;;;;;3.40;3.00;;;;;;;;;;5073112;28;20438;-66
2021/06/04 16:23:18;;;;;;;5.93;3.87;;;;;;;;;;5072340;28;20781;-67
2021/06/04 16:25:46;;;;;;;5.03;3.93;;;;;;;;;;5073118;28;20900;-67
2021/06/04 16:28:13;;;;;;;4.93;3.13;;;;;;;;;;5073016;28;20512;-67
2021/06/04 16:30:39;;;;;;;5.00;3.67;;;;;;;;;;5072690;28;20464;-67
2021/06/04 16:33:07;;;;;;;4.10;3.73;;;;;;;;;;5071280;28;20460;-69
2021/06/04 16:35:34;;;;;;;6.70;4.10;;;;;;;;;;5072666;28;20835;-68
2021/06/04 16:41:04;;;;;;;8.97;3.90;;;;;;;;;;5072680;28;20479;-67